createdAt,value
2022-08-05T00:00:20.033Z,100087.03
2022-08-05T00:02:50.998Z,100088.69
2022-08-05T00:06:01.903Z,100078.22
2022-08-05T00:08:32.460Z,100090.03
2022-08-05T00:11:01.735Z,100083.81
2022-08-05T00:13:39.175Z,100088.28
2022-08-05T00:16:10.871Z,100075.34
2022-08-05T00:18:40.604Z,100044.16
2022-08-05T00:21:09.437Z,100094.44
2022-08-05T00:23:45.616Z,100085.19
2022-08-05T00:26:17.852Z,100085.06
2022-08-05T00:28:47.457Z,100050.41
2022-08-05T00:31:16.534Z,100090.84
2022-08-05T00:34:54.739Z,100075.28
2022-08-05T00:37:11.269Z,100072.25
2022-08-05T00:39:58.566Z,100073.53
2022-08-05T00:42:37.488Z,100080.97
2022-08-05T00:45:11.481Z,100091.06
2022-08-05T00:47:56.706Z,100088.28
2022-08-05T00:50:33.070Z,100057.00
2022-08-05T00:52:59.986Z,100072.81
2022-08-05T00:55:42.624Z,100087.19
2022-08-05T00:58:17.016Z,100100.03
2022-08-05T01:00:47.497Z,100098.50
2022-08-05T01:03:22.762Z,100097.09
2022-08-05T01:05:54.514Z,100061.72
2022-08-05T01:08:41.365Z,100053.00
2022-08-05T01:11:36.672Z,100079.50
2022-08-05T01:14:27.726Z,100093.34
2022-08-05T01:17:09.709Z,100079.88
2022-08-05T01:20:33.070Z,100066.44
2022-08-05T01:23:24.464Z,100046.78
2022-08-05T01:26:13.310Z,100100.25
2022-08-05T01:28:57.654Z,100074.75
2022-08-05T01:31:48.912Z,100082.66
2022-08-05T01:34:31.527Z,100077.81
2022-08-05T01:37:18.078Z,100062.38
2022-08-05T01:39:59.171Z,100072.28
2022-08-05T01:42:31.653Z,100056.41
2022-08-05T01:45:04.460Z,100062.19
2022-08-05T01:47:43.368Z,100089.41
2022-08-05T01:50:29.688Z,100074.81
2022-08-05T01:53:04.538Z,100079.88
2022-08-05T01:55:36.131Z,100082.63
2022-08-05T01:58:29.620Z,100085.69
2022-08-05T02:00:58.174Z,100051.81
2022-08-05T02:03:34.267Z,100088.41
2022-08-05T02:06:33.603Z,100086.31
2022-08-05T02:08:58.457Z,100082.41
2022-08-05T02:11:33.129Z,100066.25
2022-08-05T02:14:15.634Z,100058.47
2022-08-05T02:16:54.478Z,100084.41
2022-08-05T02:19:35.142Z,100047.63
2022-08-05T02:22:41.883Z,100057.16
2022-08-05T02:25:18.423Z,100073.88
2022-08-05T02:27:58.263Z,100071.19
2022-08-05T02:30:30.916Z,100069.53
2022-08-05T02:33:00.312Z,100082.66
2022-08-05T02:35:37.399Z,100080.53
2022-08-05T02:38:09.408Z,100064.97
2022-08-05T02:40:41.318Z,100081.59
2022-08-05T02:43:13.142Z,100086.81
2022-08-05T02:45:52.538Z,100083.75
2022-08-05T02:48:29.559Z,100087.31
2022-08-05T02:51:00.300Z,100068.28
2022-08-05T02:53:39.446Z,100088.94
2022-08-05T02:56:16.164Z,100095.81
2022-08-05T02:58:51.454Z,100078.34
2022-08-05T03:01:24.918Z,100101.47
2022-08-05T03:04:03.181Z,100065.22
2022-08-05T03:06:55.330Z,100094.63
2022-08-05T03:09:27.162Z,100085.19
2022-08-05T03:12:04.799Z,100097.44
2022-08-05T03:14:31.616Z,100070.41
2022-08-05T03:16:59.122Z,100067.94
2022-08-05T03:19:33.253Z,100045.31
2022-08-05T03:22:05.162Z,100077.59
2022-08-05T03:24:47.233Z,100079.84
2022-08-05T03:27:18.682Z,100098.16
2022-08-05T03:30:07.243Z,100082.34
2022-08-05T03:32:32.804Z,100037.97
2022-08-05T03:35:00.785Z,100084.00
2022-08-05T03:37:31.055Z,100092.59
2022-08-05T03:40:12.003Z,100104.47
2022-08-05T03:42:41.747Z,100073.69
2022-08-05T03:45:21.378Z,100089.63
2022-08-05T03:47:50.252Z,100082.50
2022-08-05T03:50:17.633Z,100086.00
2022-08-05T03:55:07.104Z,100097.34
2022-08-05T03:56:05.915Z,100083.31
2022-08-05T03:58:33.615Z,100094.81
2022-08-05T04:01:02.301Z,100036.28
2022-08-05T04:03:38.001Z,100100.25
2022-08-05T04:06:06.976Z,100074.63
2022-08-05T04:08:37.058Z,100072.81
2022-08-05T04:11:08.598Z,100088.59
2022-08-05T04:13:50.960Z,100075.28
2022-08-05T04:16:24.174Z,100082.00
2022-08-05T04:18:54.428Z,100069.47
2022-08-05T04:22:04.997Z,100073.22
2022-08-05T04:24:18.716Z,100073.19
2022-08-05T04:26:49.248Z,100066.59
2022-08-05T04:29:16.041Z,100069.53
2022-08-05T04:31:42.951Z,100089.50
2022-08-05T04:34:31.247Z,100088.09
2022-08-05T04:36:57.328Z,100068.97
2022-08-05T04:39:24.395Z,100105.47
2022-08-05T04:41:54.285Z,100079.31
2022-08-05T04:44:29.979Z,100090.13
2022-08-05T04:46:58.715Z,100052.25
2022-08-05T04:49:39.212Z,100085.38
2022-08-05T04:52:13.202Z,100103.47
2022-08-05T04:54:40.128Z,100073.84
2022-08-05T04:57:06.913Z,100103.50
2022-08-05T04:59:36.831Z,100084.25
2022-08-05T05:02:36.679Z,100107.84
2022-08-05T05:04:53.418Z,100127.00
2022-08-05T05:07:31.918Z,100088.50
2022-08-05T05:09:59.262Z,100112.53
2022-08-05T05:12:29.479Z,100116.84
2022-08-05T05:14:56.248Z,100110.94
2022-08-05T05:17:24.536Z,100105.53
2022-08-05T05:20:11.730Z,100122.50
2022-08-05T05:22:40.875Z,100124.59
2022-08-05T05:25:16.519Z,100104.31
2022-08-05T05:27:53.439Z,100128.34
2022-08-05T05:30:29.866Z,100138.75
2022-08-05T05:33:03.890Z,100113.41
2022-08-05T05:35:44.010Z,100129.47
2022-08-05T05:38:13.360Z,100125.00
2022-08-05T05:40:49.866Z,100142.97
2022-08-05T05:43:54.065Z,100127.06
2022-08-05T05:46:15.753Z,100124.47
2022-08-05T05:48:44.475Z,100146.53
2022-08-05T05:51:15.617Z,100089.16
2022-08-05T05:53:54.141Z,100114.66
2022-08-05T05:56:33.185Z,100100.38
2022-08-05T05:59:07.389Z,100130.00
2022-08-05T06:01:38.107Z,100137.34
2022-08-05T06:04:12.223Z,100126.94
2022-08-05T06:06:42.759Z,100128.59
2022-08-05T06:09:17.601Z,100150.22
2022-08-05T06:12:01.604Z,100166.66
2022-08-05T06:14:30.622Z,100153.16
2022-08-05T06:16:58.419Z,100168.16
2022-08-05T06:19:35.238Z,100165.44
2022-08-05T06:22:04.295Z,100157.41
2022-08-05T06:24:36.745Z,100148.28
2022-08-05T06:27:04.903Z,100142.31
2022-08-05T06:29:49.361Z,100168.50
2022-08-05T06:32:25.895Z,100145.75
2022-08-05T06:34:57.934Z,100153.75
2022-08-05T06:37:56.480Z,100141.00
2022-08-05T06:40:18.237Z,100164.28
2022-08-05T06:42:48.883Z,100163.19
2022-08-05T06:45:21.148Z,100179.34
2022-08-05T06:48:44.222Z,100159.25
2022-08-05T06:50:35.686Z,100171.50
2022-08-05T06:53:04.081Z,100159.19
2022-08-05T06:55:38.565Z,100166.22
2022-08-05T06:58:29.884Z,100161.94
2022-08-05T07:01:00.251Z,100169.25
2022-08-05T07:03:32.564Z,100181.34
2022-08-05T07:06:05.963Z,100163.50
2022-08-05T07:08:47.704Z,100167.34
2022-08-05T07:11:22.387Z,100162.63
2022-08-05T07:14:15.348Z,100161.66
2022-08-05T07:18:00.542Z,100193.47
2022-08-05T07:22:28.421Z,100177.44
2022-08-05T07:24:58.638Z,100142.88
2022-08-05T07:27:27.303Z,100159.56
2022-08-05T07:30:27.321Z,100160.84
2022-08-05T07:32:53.428Z,100138.66
2022-08-05T07:36:01.624Z,100176.44
2022-08-05T07:38:07.368Z,100184.97
2022-08-05T07:40:39.561Z,100106.94
2022-08-05T07:43:20.148Z,100156.25
2022-08-05T07:45:57.224Z,100152.69
2022-08-05T07:49:02.627Z,100155.53
2022-08-05T07:51:23.077Z,100156.59
2022-08-05T07:53:59.386Z,100174.75
2022-08-05T07:57:00.002Z,100159.47
2022-08-05T07:59:15.784Z,100169.81
2022-08-05T08:01:52.060Z,100132.47
2022-08-05T08:04:37.684Z,100206.75
2022-08-05T08:07:07.420Z,100171.44
2022-08-05T08:09:35.531Z,100186.31
2022-08-05T08:12:14.018Z,100132.69
2022-08-05T08:14:46.673Z,100171.94
2022-08-05T08:17:21.341Z,100158.91
2022-08-05T08:20:21.697Z,100169.78
2022-08-05T08:22:36.022Z,100188.09
2022-08-05T08:25:03.985Z,100166.19
2022-08-05T08:27:45.048Z,100185.53
2022-08-05T08:30:29.976Z,100185.72
2022-08-05T08:33:13.724Z,100183.00
2022-08-05T08:35:53.790Z,100181.25
2022-08-05T08:38:35.283Z,100195.88
2022-08-05T08:41:07.517Z,100178.19
2022-08-05T08:45:20.709Z,100185.25
2022-08-05T08:46:26.677Z,100177.63
2022-08-05T08:49:07.918Z,100175.66
2022-08-05T08:52:03.359Z,100179.59
2022-08-05T08:54:34.212Z,100192.41
2022-08-05T08:57:11.266Z,100203.19
2022-08-05T08:59:41.876Z,100207.78
2022-08-05T09:02:16.721Z,100165.06
2022-08-05T09:04:58.202Z,100173.63
2022-08-05T09:07:40.060Z,100197.81
2022-08-05T09:10:20.369Z,100205.41
2022-08-05T09:12:51.044Z,100206.09
2022-08-05T09:15:20.386Z,100185.47
2022-08-05T09:17:49.409Z,100201.69
2022-08-05T09:20:36.216Z,100204.63
2022-08-05T09:23:37.474Z,100187.47
2022-08-05T09:26:15.919Z,100190.16
2022-08-05T09:28:49.466Z,100157.38
2022-08-05T09:31:22.093Z,100207.50
2022-08-05T09:33:56.838Z,100199.31
2022-08-05T09:36:27.561Z,100207.94
2022-08-05T09:39:18.006Z,100214.56
2022-08-05T09:42:08.501Z,100214.31
2022-08-05T09:44:44.045Z,100213.91
2022-08-05T09:47:15.643Z,100161.34
2022-08-05T09:50:00.473Z,100214.28
2022-08-05T09:52:35.571Z,100223.34
2022-08-05T09:55:57.457Z,100225.75
2022-08-05T09:57:54.697Z,100237.53
2022-08-05T10:00:26.739Z,100220.72
2022-08-05T10:02:58.124Z,100242.47
2022-08-05T10:05:28.311Z,100252.63
2022-08-05T10:08:36.515Z,100246.53
2022-08-05T10:10:53.938Z,100188.28
2022-08-05T10:13:47.435Z,100241.16
2022-08-05T10:16:41.893Z,100241.88
2022-08-05T10:19:23.813Z,100220.66
2022-08-05T10:22:08.954Z,100232.34
2022-08-05T10:24:39.756Z,100216.34
2022-08-05T10:27:07.545Z,100219.47
2022-08-05T10:30:06.468Z,100235.94
2022-08-05T10:32:53.303Z,100259.72
2022-08-05T10:35:11.162Z,100255.38
2022-08-05T10:37:44.745Z,100259.25
2022-08-05T10:40:34.456Z,100250.88
2022-08-05T10:43:51.956Z,100240.72
2022-08-05T10:46:23.962Z,100266.22
2022-08-05T10:49:02.672Z,100261.25
2022-08-05T10:51:59.638Z,100253.31
2022-08-05T10:54:57.040Z,100257.25
2022-08-05T10:57:31.792Z,100264.34
2022-08-05T11:00:24.646Z,100256.19
2022-08-05T11:03:25.563Z,100263.78
2022-08-05T11:06:15.449Z,100260.28
2022-08-05T11:09:18.502Z,100263.19
2022-08-05T11:11:54.137Z,100230.25
2022-08-05T11:14:57.606Z,100265.72
2022-08-05T11:17:59.587Z,100264.06
2022-08-05T11:20:41.646Z,100261.47
2022-08-05T11:23:33.501Z,100276.44
2022-08-05T11:26:29.223Z,100270.63
2022-08-05T11:29:06.577Z,100244.53
2022-08-05T11:31:58.420Z,100276.88
2022-08-05T11:34:50.767Z,100274.88
2022-08-05T11:38:30.972Z,100278.13
2022-08-05T11:41:01.787Z,100281.75
2022-08-05T11:44:04.841Z,100281.75
2022-08-05T11:46:58.569Z,100278.44
2022-08-05T11:49:35.153Z,100290.88
2022-08-05T11:52:11.186Z,100284.47
2022-08-05T11:54:40.666Z,100249.72
2022-08-05T11:57:24.353Z,100292.72
2022-08-05T11:59:53.237Z,100246.13
2022-08-05T12:02:31.999Z,100280.13
2022-08-05T12:05:06.884Z,100284.56
2022-08-05T12:08:03.663Z,100261.34
2022-08-05T12:10:42.884Z,100244.00
2022-08-05T12:13:14.001Z,100264.97
2022-08-05T12:15:49.734Z,100223.81
2022-08-05T12:18:32.462Z,100206.91
2022-08-05T12:21:21.048Z,100250.72
2022-08-05T12:24:06.919Z,100273.06
2022-08-05T12:26:37.277Z,100262.03
2022-08-05T12:29:09.531Z,100245.13
2022-08-05T12:31:42.402Z,100209.47
2022-08-05T12:34:14.660Z,100281.97
2022-08-05T12:36:48.504Z,100261.75
2022-08-05T12:39:15.777Z,100236.28
2022-08-05T12:41:43.785Z,100265.94
2022-08-05T12:44:14.230Z,100217.19
2022-08-05T12:46:45.489Z,100231.06
2022-08-05T12:49:15.010Z,100264.38
2022-08-05T12:52:12.831Z,100261.94
2022-08-05T12:54:37.471Z,100248.88
2022-08-05T12:57:09.633Z,100259.56
2022-08-05T13:00:08.430Z,100262.06
2022-08-05T13:02:32.456Z,100272.41
2022-08-05T13:04:59.430Z,100256.41
2022-08-05T13:07:55.001Z,100244.91
2022-08-05T13:10:20.204Z,100272.03
2022-08-05T13:12:57.418Z,100256.03
2022-08-05T13:15:42.146Z,100257.44
2022-08-05T13:18:20.185Z,100262.81
2022-08-05T13:20:49.015Z,100264.03
2022-08-05T13:23:22.179Z,100270.00
2022-08-05T13:25:59.468Z,100247.56
2022-08-05T13:28:28.350Z,100218.28
2022-08-05T13:30:55.880Z,100275.09
2022-08-05T13:34:24.606Z,100241.41
2022-08-05T13:36:13.126Z,100249.22
2022-08-05T13:38:42.428Z,100275.78
2022-08-05T13:41:11.220Z,100256.66
2022-08-05T13:43:45.446Z,100246.75
2022-08-05T13:46:44.364Z,100254.25
2022-08-05T13:49:10.555Z,100246.19
2022-08-05T13:51:40.931Z,100237.66
2022-08-05T13:54:15.079Z,100224.59
2022-08-05T13:56:45.576Z,100240.97
2022-08-05T13:59:19.692Z,100197.59
2022-08-05T14:01:58.284Z,100233.31
2022-08-05T14:04:54.173Z,100246.41
2022-08-05T14:07:59.705Z,100227.75
2022-08-05T14:10:28.668Z,100246.28
2022-08-05T14:12:57.782Z,100255.31
2022-08-05T14:16:09.286Z,100220.38
2022-08-05T14:18:23.440Z,100245.50
2022-08-05T14:20:55.005Z,100246.13
2022-08-05T14:23:24.865Z,100259.66
2022-08-05T14:25:58.616Z,100202.06
2022-08-05T14:28:30.506Z,100224.94
2022-08-05T14:31:01.067Z,100231.72
2022-08-05T14:33:32.647Z,100249.72
2022-08-05T14:36:15.562Z,100235.06
2022-08-05T14:38:47.633Z,100237.50
2022-08-05T14:41:17.813Z,100244.78
2022-08-05T14:43:59.502Z,100251.38
2022-08-05T14:46:30.743Z,100257.88
2022-08-05T14:49:06.390Z,100251.28
2022-08-05T14:51:34.534Z,100243.78
2022-08-05T14:54:27.501Z,100233.19
2022-08-05T14:56:48.672Z,100232.22
2022-08-05T14:59:16.102Z,100221.81
2022-08-05T15:01:48.463Z,100220.84
2022-08-05T15:04:17.471Z,100246.16
2022-08-05T15:06:49.501Z,100218.25
2022-08-05T15:09:51.138Z,100199.09
2022-08-05T15:12:05.798Z,100214.03
2022-08-05T15:14:34.595Z,100214.41
2022-08-05T15:17:44.478Z,100237.22
2022-08-05T15:19:57.377Z,100224.22
2022-08-05T15:22:27.024Z,100231.53
2022-08-05T15:24:55.042Z,100221.53
2022-08-05T15:27:21.897Z,100223.63
2022-08-05T15:29:56.507Z,100233.13
2022-08-05T15:32:27.394Z,100209.00
2022-08-05T15:34:55.809Z,100209.69
2022-08-05T15:38:33.217Z,100204.63
2022-08-05T15:41:00.432Z,100193.94
2022-08-05T15:43:09.052Z,100196.94
2022-08-05T15:45:45.699Z,100203.97
2022-08-05T15:48:14.052Z,100220.09
2022-08-05T15:50:43.907Z,100214.78
2022-08-05T15:53:13.124Z,100185.25
2022-08-05T15:56:02.223Z,100199.19
2022-08-05T15:58:36.842Z,100202.41
2022-08-05T16:01:16.699Z,100198.16
2022-08-05T16:03:48.573Z,100162.38
2022-08-05T16:06:19.967Z,100190.06
2022-08-05T16:08:50.276Z,100192.34
2022-08-05T16:11:18.256Z,100199.69
2022-08-05T16:13:48.677Z,100210.00
2022-08-05T16:16:25.237Z,100181.81
2022-08-05T16:18:53.061Z,100159.69
2022-08-05T16:21:20.572Z,100187.38
2022-08-05T16:24:07.748Z,100192.00
2022-08-05T16:26:58.346Z,100192.75
2022-08-05T16:29:26.778Z,100166.28
2022-08-05T16:31:58.509Z,100178.59
2022-08-05T16:34:26.921Z,100175.78
2022-08-05T16:36:55.092Z,100176.22
2022-08-05T16:39:22.742Z,100158.28
2022-08-05T16:42:14.278Z,100192.69
2022-08-05T16:44:44.313Z,100176.69
2022-08-05T16:47:28.595Z,100187.38
2022-08-05T16:50:05.470Z,100164.25
2022-08-05T16:52:32.736Z,100172.06
2022-08-05T16:55:00.530Z,100153.50
2022-08-05T16:57:50.454Z,100193.81
2022-08-05T17:00:14.705Z,100165.78
2022-08-05T17:03:15.154Z,100154.25
2022-08-05T17:05:53.203Z,100130.16
2022-08-05T17:08:36.503Z,100162.72
2022-08-05T17:11:12.845Z,100169.09
2022-08-05T17:13:44.475Z,100099.13
2022-08-05T17:16:29.926Z,100151.66
2022-08-05T17:18:59.200Z,100156.75
2022-08-05T17:21:26.068Z,100165.78
2022-08-05T17:24:28.114Z,100151.00
2022-08-05T17:26:55.619Z,100164.13
2022-08-05T17:29:33.988Z,100111.06
2022-08-05T17:32:11.300Z,100162.59
2022-08-05T17:34:38.989Z,100130.53
2022-08-05T17:37:29.443Z,100116.63
2022-08-05T17:39:55.750Z,100132.78
2022-08-05T17:42:26.983Z,100158.63
2022-08-05T17:44:57.185Z,100140.63
2022-08-05T17:47:23.920Z,100132.38
2022-08-05T17:50:00.475Z,100119.41
2022-08-05T17:52:32.299Z,100143.16
2022-08-05T17:54:59.924Z,100150.44
2022-08-05T17:57:27.654Z,100145.47
2022-08-05T18:00:05.458Z,100147.91
2022-08-05T18:02:35.789Z,100112.31
2022-08-05T18:05:07.746Z,100136.50
2022-08-05T18:07:41.435Z,100126.63
2022-08-05T18:10:11.109Z,100123.00
2022-08-05T18:12:39.248Z,100152.66
2022-08-05T18:15:06.687Z,100151.34
2022-08-05T18:17:59.025Z,100152.22
2022-08-05T18:20:29.354Z,100157.28
2022-08-05T18:23:00.770Z,100143.34
2022-08-05T18:25:39.879Z,100137.50
2022-08-05T18:28:16.223Z,100139.94
2022-08-05T18:30:51.083Z,100135.47
2022-08-05T18:33:22.529Z,100138.09
2022-08-05T18:36:04.209Z,100149.16
2022-08-05T18:38:37.312Z,100148.44
2022-08-05T18:41:55.342Z,100141.50
2022-08-05T18:43:53.144Z,100141.06
2022-08-05T18:46:20.691Z,100142.69
2022-08-05T18:48:52.641Z,100122.88
2022-08-05T18:52:04.881Z,100126.56
2022-08-05T18:54:31.075Z,100161.06
2022-08-05T18:57:01.316Z,100112.81
2022-08-05T18:59:43.652Z,100101.34
2022-08-05T19:02:38.124Z,100144.34
2022-08-05T19:06:05.532Z,100120.41
2022-08-05T19:07:52.832Z,100126.22
2022-08-05T19:10:27.946Z,100113.75
2022-08-05T19:12:56.477Z,100133.31
2022-08-05T19:15:58.199Z,100097.84
2022-08-05T19:18:20.889Z,100125.09
2022-08-05T19:20:53.752Z,100160.91
2022-08-05T19:24:04.119Z,100139.03
2022-08-05T19:26:09.404Z,100155.97
2022-08-05T19:28:42.276Z,100130.69
2022-08-05T19:31:17.752Z,100136.50
2022-08-05T19:33:55.644Z,100164.25
2022-08-05T19:36:29.284Z,100075.56
2022-08-05T19:39:00.638Z,100128.47
2022-08-05T19:41:58.078Z,100124.13
2022-08-05T19:44:16.339Z,100148.66
2022-08-05T19:46:43.723Z,100140.66
2022-08-05T19:49:17.273Z,100160.59
2022-08-05T19:52:09.142Z,100164.06
2022-08-05T19:54:34.119Z,100169.31
2022-08-05T19:57:06.513Z,100147.13
2022-08-05T19:59:55.754Z,100113.78
2022-08-05T20:02:23.390Z,100163.03
2022-08-05T20:04:50.548Z,100183.66
2022-08-05T20:07:46.662Z,100174.41
2022-08-05T20:10:13.390Z,100099.56
2022-08-05T20:12:46.350Z,100155.53
2022-08-05T20:15:48.058Z,100185.03
2022-08-05T20:18:10.750Z,100186.72
2022-08-05T20:20:55.149Z,100177.56
2022-08-05T20:23:23.124Z,100178.47
2022-08-05T20:25:52.198Z,100196.66
2022-08-05T20:28:19.671Z,100162.41
2022-08-05T20:30:46.485Z,100132.06
2022-08-05T20:33:16.457Z,100184.25
2022-08-05T20:35:45.317Z,100120.13
2022-08-05T20:38:20.268Z,100193.50
2022-08-05T20:40:56.318Z,100152.78
2022-08-05T20:43:33.404Z,100148.75
2022-08-05T20:46:18.558Z,100189.53
2022-08-05T20:48:51.974Z,100198.91
2022-08-05T20:51:18.974Z,100224.69
2022-08-05T20:53:55.256Z,100176.03
2022-08-05T20:56:31.025Z,100170.69
2022-08-05T20:59:13.891Z,100221.38
2022-08-05T21:01:46.275Z,100254.94
2022-08-05T21:04:14.206Z,100240.97
2022-08-05T21:06:45.263Z,100215.38
2022-08-05T21:09:14.248Z,100241.53
2022-08-05T21:12:09.094Z,100244.56
2022-08-05T21:14:31.453Z,100246.75
2022-08-05T21:17:05.267Z,100233.06
2022-08-05T21:19:46.390Z,100235.63
2022-08-05T21:22:23.094Z,100219.09
2022-08-05T21:24:52.412Z,100240.66
2022-08-05T21:27:24.737Z,100236.06
2022-08-05T21:29:55.437Z,100259.41
2022-08-05T21:32:24.413Z,100252.91
2022-08-05T21:34:55.838Z,100266.16
2022-08-05T21:37:41.285Z,100246.78
2022-08-05T21:40:13.722Z,100243.44
2022-08-05T21:42:44.872Z,100235.19
2022-08-05T21:45:24.622Z,100249.59
2022-08-05T21:48:02.245Z,100251.66
2022-08-05T21:50:33.456Z,100241.91
2022-08-05T21:53:04.493Z,100252.69
2022-08-05T21:56:01.737Z,100256.59
2022-08-05T21:58:24.834Z,100257.53
2022-08-05T22:00:58.823Z,100250.38
2022-08-05T22:03:48.611Z,100262.06
2022-08-05T22:06:12.726Z,100244.22
2022-08-05T22:08:42.447Z,100226.28
2022-08-05T22:11:15.705Z,100248.16
2022-08-05T22:14:06.569Z,100258.69
2022-08-05T22:16:42.064Z,100268.38
2022-08-05T22:20:00.390Z,100211.31
2022-08-05T22:22:04.649Z,100261.75
2022-08-05T22:24:53.441Z,100246.88
2022-08-05T22:28:09.336Z,100239.69
2022-08-05T22:30:34.896Z,100230.59
2022-08-05T22:33:02.507Z,100218.19
2022-08-05T22:35:31.030Z,100247.94
2022-08-05T22:38:05.785Z,100249.59
2022-08-05T22:40:37.488Z,100250.06
2022-08-05T22:43:05.402Z,100247.72
2022-08-05T22:45:32.148Z,100260.94
2022-08-05T22:47:59.727Z,100229.53
2022-08-05T22:50:27.766Z,100244.19
2022-08-05T22:52:55.511Z,100254.72
2022-08-05T22:55:23.462Z,100248.56
2022-08-05T22:57:51.998Z,100249.38
2022-08-05T23:00:21.483Z,100259.91
2022-08-05T23:02:50.554Z,100253.75
2022-08-05T23:05:18.534Z,100252.47
2022-08-05T23:07:49.555Z,100254.13
2022-08-05T23:10:20.246Z,100254.34
2022-08-05T23:12:54.712Z,100210.50
2022-08-05T23:15:26.871Z,100231.19
2022-08-05T23:18:01.700Z,100226.47
2022-08-05T23:20:31.195Z,100213.00
2022-08-05T23:22:59.087Z,100252.69
2022-08-05T23:25:53.470Z,100267.91
2022-08-05T23:28:12.848Z,100246.97
2022-08-05T23:30:43.518Z,100236.00
2022-08-05T23:33:22.057Z,100214.09
2022-08-05T23:35:56.136Z,100265.34
2022-08-05T23:38:24.557Z,100240.88
2022-08-05T23:40:52.791Z,100218.09
2022-08-05T23:43:25.091Z,100241.81
2022-08-05T23:46:20.299Z,100238.41
2022-08-05T23:48:59.943Z,100247.84
2022-08-05T23:51:53.349Z,100202.50
2022-08-05T23:54:29.878Z,100244.09
2022-08-05T23:57:03.964Z,100240.66
